createdAt,value
2018-07-06T00:00:50.102Z,100400
2018-07-06T00:03:37.014Z,100400
2018-07-06T00:06:23.728Z,100400
2018-07-06T00:09:11.235Z,100406
2018-07-06T00:11:58.068Z,100402
2018-07-06T00:14:44.809Z,100399
2018-07-06T00:17:31.473Z,100402
2018-07-06T00:20:18.253Z,100404
2018-07-06T00:23:04.913Z,100414
2018-07-06T00:25:52.341Z,100409
2018-07-06T00:28:38.914Z,100411
2018-07-06T00:31:25.526Z,100417
2018-07-06T00:34:12.465Z,100411
2018-07-06T00:36:58.938Z,100410
2018-07-06T00:39:45.707Z,100408
2018-07-06T00:42:32.434Z,100413
2018-07-06T00:45:19.077Z,100417
2018-07-06T00:48:06.479Z,100410
2018-07-06T00:50:53.279Z,100418
2018-07-06T00:53:39.958Z,100409
2018-07-06T00:56:26.622Z,100423
2018-07-06T00:59:13.930Z,100426
2018-07-06T01:02:00.688Z,100424
2018-07-06T01:04:47.358Z,100422
2018-07-06T01:07:34.132Z,100430
2018-07-06T01:10:20.719Z,100429
2018-07-06T01:13:07.370Z,100426
2018-07-06T01:15:54.037Z,100426
2018-07-06T01:18:40.781Z,100426
2018-07-06T01:21:27.525Z,100425
2018-07-06T01:24:14.210Z,100428
2018-07-06T01:27:01.002Z,100426
2018-07-06T01:29:47.545Z,100422
2018-07-06T01:32:34.306Z,100420
2018-07-06T01:35:21.021Z,100426
2018-07-06T01:38:07.672Z,100421
2018-07-06T01:40:54.264Z,100418
2018-07-06T01:43:41.650Z,100418
2018-07-06T01:46:28.469Z,100422
2018-07-06T01:49:14.984Z,100425
2018-07-06T01:52:01.661Z,100426
2018-07-06T01:54:48.520Z,100434
2018-07-06T01:57:35.937Z,100425
2018-07-06T02:00:22.776Z,100422
2018-07-06T02:03:09.549Z,100424
2018-07-06T02:05:56.254Z,100428
2018-07-06T02:08:42.747Z,100423
2018-07-06T02:11:29.334Z,100429
2018-07-06T02:14:16.073Z,100426
2018-07-06T02:17:02.694Z,100431
2018-07-06T02:19:49.465Z,100428
2018-07-06T02:22:36.215Z,100430
2018-07-06T02:25:22.943Z,100431
2018-07-06T02:28:09.689Z,100427
2018-07-06T02:30:56.427Z,100433
2018-07-06T02:33:43.046Z,100435
2018-07-06T02:36:30.461Z,100436
2018-07-06T02:39:17.972Z,100435
2018-07-06T02:42:04.900Z,100443
2018-07-06T02:44:51.613Z,100438
2018-07-06T02:47:39.142Z,100438
2018-07-06T02:50:25.733Z,100445
2018-07-06T02:53:12.221Z,100443
2018-07-06T02:55:58.937Z,100445
2018-07-06T02:58:45.573Z,100439
2018-07-06T03:01:32.885Z,100446
2018-07-06T03:04:19.387Z,100443
2018-07-06T03:07:06.922Z,100443
2018-07-06T03:09:54.330Z,100448
2018-07-06T03:12:41.015Z,100449
2018-07-06T03:15:27.643Z,100447
2018-07-06T03:18:14.440Z,100446
2018-07-06T03:21:01.243Z,100445
2018-07-06T03:23:48.066Z,100454
2018-07-06T03:26:34.715Z,100452
2018-07-06T03:29:21.446Z,100453
2018-07-06T03:32:07.907Z,100458
2018-07-06T03:34:54.587Z,100454
2018-07-06T03:37:41.218Z,100455
2018-07-06T03:40:28.690Z,100470
2018-07-06T03:43:15.452Z,100468
2018-07-06T03:46:02.760Z,100463
2018-07-06T03:48:49.536Z,100467
2018-07-06T03:51:36.335Z,100475
2018-07-06T03:54:23.158Z,100470
2018-07-06T03:57:09.765Z,100476
2018-07-06T03:59:56.590Z,100473
2018-07-06T04:02:43.305Z,100470
2018-07-06T04:05:30.007Z,100471
2018-07-06T04:08:16.699Z,100475
2018-07-06T04:11:03.356Z,100473
2018-07-06T04:13:49.987Z,100477
2018-07-06T04:16:36.595Z,100477
2018-07-06T04:19:23.340Z,100483
2018-07-06T04:22:10.086Z,100484
2018-07-06T04:24:57.585Z,100493
2018-07-06T04:27:44.082Z,100500
2018-07-06T04:30:30.753Z,100503
2018-07-06T04:33:17.543Z,100498
2018-07-06T04:36:04.203Z,100504
2018-07-06T04:38:50.996Z,100507
2018-07-06T04:41:38.433Z,100509
2018-07-06T04:44:25.952Z,100516
2018-07-06T04:47:12.806Z,100516
2018-07-06T04:49:59.571Z,100522
2018-07-06T04:52:47.195Z,100521
2018-07-06T04:55:34.708Z,100518
2018-07-06T04:58:21.333Z,100521
2018-07-06T05:01:08.855Z,100518
2018-07-06T05:03:56.218Z,100523
2018-07-06T05:06:42.847Z,100528
2018-07-06T05:09:29.401Z,100524
2018-07-06T05:12:16.193Z,100531
2018-07-06T05:15:02.981Z,100538
2018-07-06T05:17:49.605Z,100538
2018-07-06T05:20:36.309Z,100541
2018-07-06T05:23:23.084Z,100543
2018-07-06T05:26:09.943Z,100544
2018-07-06T05:28:56.558Z,100547
2018-07-06T05:31:43.951Z,100545
2018-07-06T05:34:30.685Z,100546
2018-07-06T05:37:17.540Z,100552
2018-07-06T05:40:04.327Z,100546
2018-07-06T05:42:50.845Z,100555
2018-07-06T05:45:37.692Z,100554
2018-07-06T05:48:24.202Z,100554
2018-07-06T05:51:10.820Z,100555
2018-07-06T05:53:58.258Z,100554
2018-07-06T05:56:44.950Z,100557
2018-07-06T05:59:31.680Z,100558
2018-07-06T06:02:18.206Z,100557
2018-07-06T06:05:04.865Z,100561
2018-07-06T06:07:32.969Z,100555
2018-07-06T06:10:01.809Z,100559
2018-07-06T06:12:30.651Z,100565
2018-07-06T06:14:59.516Z,100566
2018-07-06T06:17:29.108Z,100571
2018-07-06T06:19:57.963Z,100571
2018-07-06T06:22:26.799Z,100573
2018-07-06T06:24:56.398Z,100574
2018-07-06T06:27:25.275Z,100581
2018-07-06T06:29:54.083Z,100581
2018-07-06T06:32:23.674Z,100591
2018-07-06T06:34:52.521Z,100588
2018-07-06T06:37:21.369Z,100594
2018-07-06T06:39:50.224Z,100594
2018-07-06T06:42:19.060Z,100593
2018-07-06T06:44:47.957Z,100600
2018-07-06T06:47:16.768Z,100603
2018-07-06T06:49:45.627Z,100604
2018-07-06T06:52:14.475Z,100605
2018-07-06T06:54:43.314Z,100615
2018-07-06T06:57:12.162Z,100609
2018-07-06T06:59:41.050Z,100607
2018-07-06T07:02:09.913Z,100611
2018-07-06T07:04:38.797Z,100605
2018-07-06T07:07:07.652Z,100608
2018-07-06T07:09:37.246Z,100609
2018-07-06T07:12:07.089Z,100605
2018-07-06T07:14:35.696Z,100613
2018-07-06T07:17:04.532Z,100623
2018-07-06T07:19:33.374Z,100619
2018-07-06T07:22:02.226Z,100620
2018-07-06T07:24:31.083Z,100622
2018-07-06T07:26:59.924Z,100621
2018-07-06T07:29:28.772Z,100620
2018-07-06T07:31:57.633Z,100621
2018-07-06T07:34:26.491Z,100623
2018-07-06T07:36:55.370Z,100616
2018-07-06T07:39:24.213Z,100622
2018-07-06T07:41:53.059Z,100626
2018-07-06T07:44:21.910Z,100624
2018-07-06T07:46:50.761Z,100632
2018-07-06T07:49:19.670Z,100625
2018-07-06T07:54:39.707Z,100630
2018-07-06T07:57:08.514Z,100632
2018-07-06T07:59:38.090Z,100635
2018-07-06T08:02:06.950Z,100635
2018-07-06T08:04:35.787Z,100646
2018-07-06T08:07:04.644Z,100642
2018-07-06T08:09:33.509Z,100646
2018-07-06T08:12:02.370Z,100654
2018-07-06T08:14:31.246Z,100651
2018-07-06T08:17:00.054Z,100652
2018-07-06T08:19:28.893Z,100664
2018-07-06T08:21:57.729Z,100663
2018-07-06T08:24:26.605Z,100659
2018-07-06T08:26:56.039Z,100671
2018-07-06T08:29:24.877Z,100671
2018-07-06T08:31:53.729Z,100670
2018-07-06T08:34:37.240Z,100668
2018-07-06T08:39:53.339Z,100672
2018-07-06T08:42:22.126Z,100674
2018-07-06T08:44:50.980Z,100686
2018-07-06T08:47:19.802Z,100675
2018-07-06T08:49:49.381Z,100681
2018-07-06T08:52:18.222Z,100685
2018-07-06T08:54:47.123Z,100688
2018-07-06T08:57:15.915Z,100694
2018-07-06T08:59:44.773Z,100700
2018-07-06T09:02:13.608Z,100697
2018-07-06T09:04:42.514Z,100700
2018-07-06T09:07:12.326Z,100695
2018-07-06T09:09:41.316Z,100705
2018-07-06T09:12:10.169Z,100698
2018-07-06T09:14:39.013Z,100703
2018-07-06T09:17:07.855Z,100698
2018-07-06T09:19:36.750Z,100703
2018-07-06T09:22:05.544Z,100700
2018-07-06T09:24:34.379Z,100705
2018-07-06T09:27:03.498Z,100711
2018-07-06T09:29:32.059Z,100712
2018-07-06T09:32:00.899Z,100722
2018-07-06T09:34:29.751Z,100719
2018-07-06T09:36:59.328Z,100708
2018-07-06T09:39:28.172Z,100719
2018-07-06T09:41:57.013Z,100710
2018-07-06T09:44:25.847Z,100714
2018-07-06T09:46:54.695Z,100723
2018-07-06T09:49:23.548Z,100714
2018-07-06T09:51:52.382Z,100721
2018-07-06T09:54:21.223Z,100704
2018-07-06T09:56:50.064Z,100706
2018-07-06T09:59:18.904Z,100715
2018-07-06T10:01:47.739Z,100715
2018-07-06T10:04:17.367Z,100707
2018-07-06T10:06:46.756Z,100704
2018-07-06T10:09:15.602Z,100712
2018-07-06T10:11:44.450Z,100712
2018-07-06T10:14:13.281Z,100710
2018-07-06T10:16:42.113Z,100704
2018-07-06T10:19:11.699Z,100710
2018-07-06T10:21:40.551Z,100711
2018-07-06T10:24:09.390Z,100704
2018-07-06T10:26:38.231Z,100714
2018-07-06T10:29:07.093Z,100716
2018-07-06T10:31:35.934Z,100722
2018-07-06T10:34:04.780Z,100721
2018-07-06T10:36:33.626Z,100719
2018-07-06T10:39:02.470Z,100718
2018-07-06T10:41:31.338Z,100716
2018-07-06T10:44:00.178Z,100719
2018-07-06T10:46:29.007Z,100709
2018-07-06T10:48:58.587Z,100702
2018-07-06T10:51:27.448Z,100709
2018-07-06T10:53:56.273Z,100716
2018-07-06T10:56:25.119Z,100721
2018-07-06T10:58:53.947Z,100725
2018-07-06T11:01:22.803Z,100728
2018-07-06T11:03:51.645Z,100722
2018-07-06T11:06:21.222Z,100721
2018-07-06T11:08:50.085Z,100721
2018-07-06T11:11:18.909Z,100717
2018-07-06T11:13:47.753Z,100714
2018-07-06T11:16:16.607Z,100716
2018-07-06T11:18:45.451Z,100715
2018-07-06T11:21:14.292Z,100719
2018-07-06T11:23:43.135Z,100717
2018-07-06T11:26:11.998Z,100716
2018-07-06T11:28:40.845Z,100716
2018-07-06T11:31:10.432Z,100719
2018-07-06T11:33:39.268Z,100723
2018-07-06T11:36:08.129Z,100720
2018-07-06T11:38:36.974Z,100723
2018-07-06T11:41:05.806Z,100718
2018-07-06T11:43:35.394Z,100722
2018-07-06T11:46:04.255Z,100719
2018-07-06T11:48:33.100Z,100723
2018-07-06T11:51:01.931Z,100714
2018-07-06T11:53:30.770Z,100720
2018-07-06T11:56:00.392Z,100717
2018-07-06T11:58:29.218Z,100716
2018-07-06T12:00:58.080Z,100712
2018-07-06T12:03:27.635Z,100711
2018-07-06T12:05:56.473Z,100719
2018-07-06T12:08:25.319Z,100704
2018-07-06T12:10:54.151Z,100708
2018-07-06T12:13:22.993Z,100698
2018-07-06T12:15:51.836Z,100709
2018-07-06T12:18:20.696Z,100709
2018-07-06T12:20:50.290Z,100705
2018-07-06T12:23:19.135Z,100704
2018-07-06T12:25:47.974Z,100698
2018-07-06T12:28:17.565Z,100695
2018-07-06T12:30:46.420Z,100695
2018-07-06T12:33:15.259Z,100688
2018-07-06T12:35:44.354Z,100697
2018-07-06T12:38:13.939Z,100702
2018-07-06T12:40:42.773Z,100709
2018-07-06T12:43:11.619Z,100698
2018-07-06T12:45:40.455Z,100702
2018-07-06T12:48:09.319Z,100690
2018-07-06T12:50:38.895Z,100693
2018-07-06T12:53:07.759Z,100693
2018-07-06T12:55:36.604Z,100697
2018-07-06T12:58:06.190Z,100689
2018-07-06T13:00:35.038Z,100695
2018-07-06T13:03:03.874Z,100688
2018-07-06T13:05:32.739Z,100686
2018-07-06T13:08:01.577Z,100689
2018-07-06T13:10:31.493Z,100685
2018-07-06T13:13:00.013Z,100691
2018-07-06T13:15:28.865Z,100695
2018-07-06T13:17:58.473Z,100698
2018-07-06T13:20:28.055Z,100694
2018-07-06T13:22:56.896Z,100702
2018-07-06T13:25:25.744Z,100702
2018-07-06T13:27:54.579Z,100705
2018-07-06T13:30:23.411Z,100703
2018-07-06T13:32:52.249Z,100711
2018-07-06T13:35:21.081Z,100706
2018-07-06T13:37:49.931Z,100706
2018-07-06T13:40:18.772Z,100705
2018-07-06T13:42:47.610Z,100699
2018-07-06T13:45:16.445Z,100705
2018-07-06T13:47:45.285Z,100707
2018-07-06T13:50:14.128Z,100707
2018-07-06T13:52:42.977Z,100707
2018-07-06T13:55:11.825Z,100702
2018-07-06T13:57:41.402Z,100706
2018-07-06T14:00:10.229Z,100702
2018-07-06T14:02:39.814Z,100698
2018-07-06T14:05:08.657Z,100691
2018-07-06T14:07:37.504Z,100697
2018-07-06T14:10:06.333Z,100689
2018-07-06T14:12:35.175Z,100698
2018-07-06T14:15:05.813Z,100694
2018-07-06T14:17:34.657Z,100692
2018-07-06T14:20:03.507Z,100694
2018-07-06T14:22:32.403Z,100692
2018-07-06T14:25:01.192Z,100696
2018-07-06T14:27:30.027Z,100696
2018-07-06T14:29:58.876Z,100690
2018-07-06T14:32:27.730Z,100689
2018-07-06T14:34:56.575Z,100685
2018-07-06T14:37:25.454Z,100689
2018-07-06T14:39:55.009Z,100688
2018-07-06T14:42:23.856Z,100683
2018-07-06T14:44:52.700Z,100683
2018-07-06T14:47:21.627Z,100681
2018-07-06T14:49:50.398Z,100682
2018-07-06T14:52:19.246Z,100678
2018-07-06T14:54:48.092Z,100686
2018-07-06T14:57:16.933Z,100681
2018-07-06T14:59:45.797Z,100680
2018-07-06T15:02:14.635Z,100685
2018-07-06T15:04:43.488Z,100680
2018-07-06T15:07:12.332Z,100680
2018-07-06T15:09:41.184Z,100679
2018-07-06T15:12:10.029Z,100693
2018-07-06T15:14:38.867Z,100686
2018-07-06T15:17:07.716Z,100686
2018-07-06T15:19:36.576Z,100680
2018-07-06T15:22:05.429Z,100684
2018-07-06T15:24:34.278Z,100684
2018-07-06T15:27:03.120Z,100678
2018-07-06T15:29:31.957Z,100688
2018-07-06T15:32:00.792Z,100683
2018-07-06T15:34:30.378Z,100694
2018-07-06T15:36:59.218Z,100690
2018-07-06T15:39:28.808Z,100695
2018-07-06T15:41:58.394Z,100697
2018-07-06T15:44:27.842Z,100682
2018-07-06T15:46:56.697Z,100689
2018-07-06T15:49:25.553Z,100694
2018-07-06T15:51:54.407Z,100694
2018-07-06T15:54:23.272Z,100698
2018-07-06T15:56:52.126Z,100693
2018-07-06T15:59:20.963Z,100702
2018-07-06T16:01:49.809Z,100715
2018-07-06T16:04:18.645Z,100699
2018-07-06T16:06:47.494Z,100691
2018-07-06T16:09:16.335Z,100692
2018-07-06T16:11:45.169Z,100692
2018-07-06T16:14:14.211Z,100707
2018-07-06T16:16:42.848Z,100698
2018-07-06T16:19:12.601Z,100700
2018-07-06T16:21:41.724Z,100697
2018-07-06T16:24:10.574Z,100701
2018-07-06T16:26:39.422Z,100694
2018-07-06T16:29:08.843Z,100698
2018-07-06T16:31:38.461Z,100696
2018-07-06T16:34:07.872Z,100700
2018-07-06T16:36:36.711Z,100704
2018-07-06T16:39:05.553Z,100703
2018-07-06T16:41:34.403Z,100718
2018-07-06T16:44:03.326Z,100702
2018-07-06T16:46:32.099Z,100714
2018-07-06T16:49:01.686Z,100718
2018-07-06T16:51:30.534Z,100719
2018-07-06T16:53:59.378Z,100718
2018-07-06T16:56:28.957Z,100730
2018-07-06T16:58:57.794Z,100725
2018-07-06T17:01:26.637Z,100729
2018-07-06T17:03:55.493Z,100729
2018-07-06T17:06:24.341Z,100726
2018-07-06T17:08:53.938Z,100725
2018-07-06T17:11:22.842Z,100734
2018-07-06T17:13:51.700Z,100738
2018-07-06T17:16:20.675Z,100734
2018-07-06T17:18:49.366Z,100744
2018-07-06T17:21:18.215Z,100743
2018-07-06T17:23:47.808Z,100745
2018-07-06T17:26:17.391Z,100741
2018-07-06T17:28:46.229Z,100752
2018-07-06T17:31:15.067Z,100749
2018-07-06T17:33:43.901Z,100749
2018-07-06T17:36:12.736Z,100750
2018-07-06T17:38:41.571Z,100740
2018-07-06T17:41:11.279Z,100748
2018-07-06T17:43:39.997Z,100754
2018-07-06T17:46:08.839Z,100749
2018-07-06T17:48:37.678Z,100752
2018-07-06T17:51:06.516Z,100748
2018-07-06T17:53:36.102Z,100755
2018-07-06T17:56:04.953Z,100759
2018-07-06T17:58:33.799Z,100753
2018-07-06T18:01:02.651Z,100756
2018-07-06T18:03:31.489Z,100760
2018-07-06T18:06:00.342Z,100762
2018-07-06T18:08:29.187Z,100772
2018-07-06T18:10:58.030Z,100773
2018-07-06T18:13:26.893Z,100782
2018-07-06T18:15:55.728Z,100783
2018-07-06T18:18:24.592Z,100786
2018-07-06T18:20:53.443Z,100789
2018-07-06T18:23:23.093Z,100795
2018-07-06T18:25:51.883Z,100795
2018-07-06T18:28:20.720Z,100791
2018-07-06T18:30:50.323Z,100802
2018-07-06T18:33:19.161Z,100799
2018-07-06T18:35:48.012Z,100796
2018-07-06T18:38:17.579Z,100800
2018-07-06T18:40:46.419Z,100798
2018-07-06T18:43:15.271Z,100800
2018-07-06T18:45:44.112Z,100805
2018-07-06T18:48:13.707Z,100801
2018-07-06T18:50:42.539Z,100806
2018-07-06T18:53:11.380Z,100809
2018-07-06T18:55:40.231Z,100818
2018-07-06T18:58:09.062Z,100812
2018-07-06T19:00:37.895Z,100808
2018-07-06T19:03:07.485Z,100817
2018-07-06T19:05:36.331Z,100813
2018-07-06T19:08:05.180Z,100817
2018-07-06T19:10:34.016Z,100818
2018-07-06T19:13:02.861Z,100820
2018-07-06T19:15:31.695Z,100827
2018-07-06T19:18:00.563Z,100830
2018-07-06T19:20:29.421Z,100836
2018-07-06T19:22:58.277Z,100832
2018-07-06T19:25:27.126Z,100845
2018-07-06T19:27:55.969Z,100847
2018-07-06T19:30:24.827Z,100848
2018-07-06T19:32:53.662Z,100856
2018-07-06T19:35:22.526Z,100855
2018-07-06T19:37:52.120Z,100863
2018-07-06T19:40:20.972Z,100865
2018-07-06T19:42:49.813Z,100877
2018-07-06T19:45:18.652Z,100882
2018-07-06T19:47:47.502Z,100886
2018-07-06T19:50:16.357Z,100885
2018-07-06T19:52:45.212Z,100888
2018-07-06T19:55:14.140Z,100888
2018-07-06T19:57:42.898Z,100897
2018-07-06T20:00:11.795Z,100900
2018-07-06T20:02:40.641Z,100908
2018-07-06T20:05:09.478Z,100905
2018-07-06T20:07:38.327Z,100912
2018-07-06T20:10:07.173Z,100911
2018-07-06T20:12:36.748Z,100921
2018-07-06T20:15:05.590Z,100927
2018-07-06T20:17:34.435Z,100926
2018-07-06T20:20:03.277Z,100925
2018-07-06T20:22:32.111Z,100933
2018-07-06T20:25:00.984Z,100941
2018-07-06T20:27:29.796Z,100938
2018-07-06T20:29:58.640Z,100938
2018-07-06T20:32:27.494Z,100944
2018-07-06T20:34:56.328Z,100951
2018-07-06T20:37:25.194Z,100956
2018-07-06T20:39:54.031Z,100957
2018-07-06T20:42:22.921Z,100961
2018-07-06T20:44:51.740Z,100961
2018-07-06T20:47:20.588Z,100960
2018-07-06T20:49:49.438Z,100962
2018-07-06T20:52:18.285Z,100966
2018-07-06T20:54:47.141Z,100972
2018-07-06T20:57:15.978Z,100967
2018-07-06T20:59:45.579Z,100965
2018-07-06T21:02:14.432Z,100972
2018-07-06T21:04:43.320Z,100969
2018-07-06T21:07:12.126Z,100976
2018-07-06T21:09:40.965Z,100985
2018-07-06T21:12:09.856Z,100976
2018-07-06T21:14:39.469Z,100976
2018-07-06T21:17:08.342Z,100977
2018-07-06T21:19:37.938Z,100983
2018-07-06T21:22:06.805Z,100983
2018-07-06T21:24:35.630Z,100985
2018-07-06T21:27:04.481Z,100985
2018-07-06T21:29:33.306Z,100985
2018-07-06T21:32:02.160Z,100986
2018-07-06T21:34:31.032Z,100990
2018-07-06T21:36:59.870Z,100986
2018-07-06T21:39:28.731Z,100989
2018-07-06T21:41:57.576Z,100997
2018-07-06T21:44:26.416Z,100992
2018-07-06T21:46:55.273Z,100998
2018-07-06T21:49:24.159Z,100996
2018-07-06T21:51:53.024Z,100995
2018-07-06T21:54:21.856Z,100989
2018-07-06T21:56:50.701Z,100990
2018-07-06T21:59:19.548Z,100991
2018-07-06T22:01:48.405Z,100990
2018-07-06T22:04:17.259Z,100994
2018-07-06T22:06:46.102Z,100995
2018-07-06T22:09:14.935Z,100999
2018-07-06T22:11:43.782Z,100999
2018-07-06T22:14:12.622Z,101000
2018-07-06T22:16:41.462Z,100991
2018-07-06T22:19:10.301Z,100989
2018-07-06T22:21:39.903Z,101001
2018-07-06T22:24:09.493Z,101002
2018-07-06T22:26:38.353Z,101006
2018-07-06T22:29:07.195Z,101012
2018-07-06T22:31:36.066Z,101005
2018-07-06T22:34:04.906Z,101002
2018-07-06T22:36:34.495Z,101015
2018-07-06T22:39:03.329Z,101007
2018-07-06T22:41:32.219Z,101004
2018-07-06T22:44:01.807Z,101019
2018-07-06T22:46:30.659Z,101020
2018-07-06T22:48:59.505Z,101016
2018-07-06T22:51:28.361Z,101016
2018-07-06T22:53:57.201Z,101011
2018-07-06T22:56:26.040Z,101008
2018-07-06T22:58:54.899Z,101009
2018-07-06T23:01:24.482Z,101004
2018-07-06T23:03:53.309Z,101006
2018-07-06T23:06:22.964Z,101018
2018-07-06T23:08:51.739Z,101011
2018-07-06T23:11:20.583Z,101011
2018-07-06T23:13:49.427Z,101009
2018-07-06T23:16:18.277Z,101010
2018-07-06T23:18:47.122Z,101010
2018-07-06T23:21:15.959Z,101014
2018-07-06T23:23:44.785Z,101014
2018-07-06T23:26:13.625Z,101017
2018-07-06T23:28:42.457Z,101022
2018-07-06T23:31:11.304Z,101022
2018-07-06T23:33:40.139Z,101019
2018-07-06T23:36:08.985Z,101022
2018-07-06T23:38:37.842Z,101017
2018-07-06T23:41:06.682Z,101019
2018-07-06T23:43:36.271Z,101019
2018-07-06T23:46:05.114Z,101024
2018-07-06T23:48:33.961Z,101020
2018-07-06T23:51:02.812Z,101030
2018-07-06T23:53:31.658Z,101025
2018-07-06T23:56:01.242Z,101024
2018-07-06T23:58:30.074Z,101025
